createdAt,value
2023-01-11T00:03:04.858Z,100002.31
2023-01-11T00:07:07.864Z,99991.16
2023-01-11T00:11:16.730Z,99972.81
2023-01-11T00:15:19.929Z,99980.81
2023-01-11T00:19:22.979Z,99976.78
2023-01-11T00:23:26.008Z,99969.78
2023-01-11T00:27:30.583Z,99969.09
2023-01-11T00:31:33.645Z,99953.81
2023-01-11T00:35:36.714Z,99936.44
2023-01-11T00:39:39.738Z,99933.84
2023-01-11T00:44:02.046Z,99941.28
2023-01-11T00:48:07.171Z,99940.81
2023-01-11T00:52:10.290Z,99935.34
2023-01-11T00:56:13.317Z,99930.72
2023-01-11T01:00:19.017Z,99922.84
2023-01-11T01:04:22.123Z,99918.03
2023-01-11T01:08:25.121Z,99928.75
2023-01-11T01:12:45.967Z,99918.28
2023-01-11T01:16:50.769Z,99919.59
2023-01-11T01:20:53.790Z,99913.03
2023-01-11T01:24:56.818Z,99920.03
2023-01-11T01:28:59.845Z,99899.16
2023-01-11T01:33:04.219Z,99908.69
2023-01-11T01:37:08.463Z,99935.88
2023-01-11T01:41:13.263Z,99914.06
2023-01-11T01:45:23.918Z,99906.66
2023-01-11T01:49:28.322Z,99929.97
2023-01-11T01:53:37.177Z,99925.19
2023-01-11T01:57:43.310Z,99925.00
2023-01-11T02:01:50.619Z,99940.75
2023-01-11T02:05:55.494Z,99913.34
2023-01-11T02:10:04.784Z,99910.00
2023-01-11T02:14:18.462Z,99916.56
2023-01-11T02:18:21.791Z,99904.53
2023-01-11T02:22:59.913Z,99897.63
2023-01-11T02:27:23.445Z,99909.06
2023-01-11T02:31:33.159Z,99899.31
2023-01-11T02:35:49.156Z,99884.31
2023-01-11T02:40:01.640Z,99882.63
2023-01-11T02:44:31.362Z,99875.59
2023-01-11T02:48:44.066Z,99864.97
2023-01-11T02:52:55.513Z,99870.59
2023-01-11T02:57:01.712Z,99881.56
2023-01-11T03:01:06.055Z,99880.72
2023-01-11T03:05:14.333Z,99885.13
2023-01-11T03:09:26.178Z,99893.41
2023-01-11T03:13:41.997Z,99898.28
2023-01-11T03:17:55.270Z,99891.78
2023-01-11T03:22:08.572Z,99903.28
2023-01-11T03:26:23.727Z,99914.91
2023-01-11T03:30:33.475Z,99905.50
2023-01-11T03:34:43.503Z,99896.91
2023-01-11T03:38:52.912Z,99897.59
2023-01-11T03:43:12.033Z,99894.97
2023-01-11T03:47:18.416Z,99895.31
2023-01-11T03:51:31.119Z,99879.16
2023-01-11T03:55:39.885Z,99899.28
2023-01-11T03:59:43.638Z,99885.34
2023-01-11T04:03:46.640Z,99885.34
2023-01-11T04:07:49.678Z,99900.34
2023-01-11T04:11:54.019Z,99875.22
2023-01-11T04:15:57.064Z,99875.94
2023-01-11T04:20:00.049Z,99877.97
2023-01-11T04:24:03.053Z,99886.78
2023-01-11T04:28:07.824Z,99878.69
2023-01-11T04:32:10.837Z,99874.53
2023-01-11T04:36:14.024Z,99873.53
2023-01-11T04:40:17.855Z,99858.44
2023-01-11T04:44:22.456Z,99874.53
2023-01-11T04:48:25.484Z,99884.09
2023-01-11T04:52:28.506Z,99863.31
2023-01-11T04:56:31.680Z,99876.66
2023-01-11T05:00:36.065Z,99874.88
2023-01-11T05:04:39.061Z,99877.41
2023-01-11T05:08:46.483Z,99874.66
2023-01-11T05:12:49.493Z,99876.66
2023-01-11T05:16:53.953Z,99883.81
2023-01-11T05:20:56.963Z,99868.91
2023-01-11T05:24:59.955Z,99879.50
2023-01-11T05:29:05.357Z,99895.47
2023-01-11T05:33:09.727Z,99884.63
2023-01-11T05:37:12.966Z,99900.06
2023-01-11T05:41:17.088Z,99896.09
2023-01-11T05:45:32.929Z,99898.38
2023-01-11T05:49:37.402Z,99899.59
2023-01-11T05:53:40.600Z,99876.75
2023-01-11T05:57:43.886Z,99896.19
2023-01-11T06:01:47.018Z,99886.28
2023-01-11T06:05:52.193Z,99873.78
2023-01-11T06:09:55.306Z,99882.50
2023-01-11T06:13:58.367Z,99888.44
2023-01-11T06:18:01.759Z,99883.91
2023-01-11T06:22:06.156Z,99885.44
2023-01-11T06:26:11.227Z,99891.38
2023-01-11T06:30:14.905Z,99908.88
2023-01-11T06:34:17.922Z,99906.13
2023-01-11T06:38:23.607Z,99914.34
2023-01-11T06:42:26.642Z,99938.53
2023-01-11T06:46:29.800Z,99918.91
2023-01-11T06:50:32.978Z,99934.75
2023-01-11T06:54:37.615Z,99950.09
2023-01-11T06:58:40.721Z,99940.81
2023-01-11T07:02:43.911Z,99943.41
2023-01-11T07:06:46.904Z,99945.19
2023-01-11T07:10:51.247Z,99952.34
2023-01-11T07:14:54.265Z,99972.34
2023-01-11T07:18:57.278Z,99966.34
2023-01-11T07:23:02.369Z,99961.69
2023-01-11T07:27:06.796Z,99958.97
2023-01-11T07:31:10.099Z,99955.03
2023-01-11T07:35:13.421Z,99959.91
2023-01-11T07:39:16.634Z,99960.97
2023-01-11T07:43:23.320Z,99997.63
2023-01-11T07:47:26.693Z,100000.22
2023-01-11T07:51:29.630Z,100002.50
2023-01-11T07:55:32.620Z,100009.41
2023-01-11T07:59:36.943Z,100015.75
2023-01-11T08:03:40.038Z,100005.84
2023-01-11T08:07:43.281Z,100019.75
2023-01-11T08:12:18.208Z,100021.66
2023-01-11T08:16:22.584Z,100031.56
2023-01-11T08:20:27.037Z,100038.72
2023-01-11T08:24:30.362Z,100055.75
2023-01-11T08:28:33.402Z,100063.34
2023-01-11T08:32:37.766Z,100052.56
2023-01-11T08:36:40.868Z,100072.53
2023-01-11T08:40:43.807Z,100084.41
2023-01-11T08:44:46.835Z,100113.91
2023-01-11T08:48:52.440Z,100100.91
2023-01-11T08:52:55.483Z,100102.63
2023-01-11T08:56:58.765Z,100115.22
2023-01-11T09:01:03.959Z,100119.03
2023-01-11T09:05:09.671Z,100118.25
2023-01-11T09:09:12.728Z,100129.13
2023-01-11T09:13:15.968Z,100141.38
2023-01-11T09:17:19.059Z,100152.78
2023-01-11T09:21:23.859Z,100145.16
2023-01-11T09:25:27.165Z,100151.31
2023-01-11T09:29:30.528Z,100151.53
2023-01-11T09:33:34.714Z,100146.28
2023-01-11T09:37:41.475Z,100158.34
2023-01-11T09:42:04.242Z,100173.09
2023-01-11T09:46:10.074Z,100166.41
2023-01-11T09:50:18.784Z,100177.78
2023-01-11T09:54:28.087Z,100189.78
2023-01-11T09:58:42.649Z,100208.34
2023-01-11T10:03:00.783Z,100189.00
2023-01-11T10:07:38.662Z,100181.25
2023-01-11T10:18:25.908Z,100182.34
2023-01-11T10:21:06.961Z,100186.28
2023-01-11T10:25:18.924Z,100210.53
2023-01-11T10:29:46.204Z,100204.88
2023-01-11T10:34:09.356Z,100197.28
2023-01-11T10:38:43.647Z,100207.53
2023-01-11T10:42:52.348Z,100201.75
2023-01-11T10:46:59.700Z,100182.16
2023-01-11T10:51:11.252Z,100173.13
2023-01-11T10:55:17.829Z,100175.50
2023-01-11T10:59:37.990Z,100198.25
2023-01-11T11:03:54.284Z,100186.56
2023-01-11T11:08:02.347Z,100185.50
2023-01-11T11:12:10.367Z,100178.53
2023-01-11T11:16:28.905Z,100160.53
2023-01-11T11:20:35.305Z,100148.91
2023-01-11T11:24:42.658Z,100172.28
2023-01-11T11:29:01.251Z,100176.78
2023-01-11T11:33:07.840Z,100158.41
2023-01-11T11:37:22.082Z,100142.03
2023-01-11T11:41:25.167Z,100160.41
2023-01-11T11:45:28.519Z,100152.53
2023-01-11T11:49:33.230Z,100150.97
2023-01-11T11:53:44.259Z,100164.31
2023-01-11T11:57:48.862Z,100150.31
2023-01-11T12:01:59.152Z,100164.75
2023-01-11T12:06:05.099Z,100161.78
2023-01-11T12:10:14.728Z,100160.63
2023-01-11T12:14:19.947Z,100151.06
2023-01-11T12:18:25.964Z,100140.09
2023-01-11T12:22:30.295Z,100137.31
2023-01-11T12:26:39.544Z,100146.25
2023-01-11T12:30:52.662Z,100137.53
2023-01-11T12:35:13.645Z,100129.50
2023-01-11T12:39:24.393Z,100150.75
2023-01-11T12:43:41.668Z,100135.28
2023-01-11T12:48:08.703Z,100155.16
2023-01-11T12:52:37.946Z,100151.56
2023-01-11T12:56:56.030Z,100158.72
2023-01-11T13:01:12.867Z,100167.38
2023-01-11T13:05:25.555Z,100179.19
2023-01-11T13:09:38.275Z,100173.31
2023-01-11T13:13:53.230Z,100178.13
2023-01-11T13:18:05.816Z,100179.16
2023-01-11T13:22:16.303Z,100197.94
2023-01-11T13:26:24.468Z,100168.63
2023-01-11T13:30:28.504Z,100182.13
2023-01-11T13:34:39.839Z,100175.03
2023-01-11T13:38:46.460Z,100172.13
2023-01-11T13:42:52.926Z,100172.97
2023-01-11T13:47:08.921Z,100162.63
2023-01-11T13:51:20.016Z,100170.34
2023-01-11T13:55:30.203Z,100183.44
2023-01-11T13:59:37.827Z,100185.19
2023-01-11T14:03:49.130Z,100187.38
2023-01-11T14:08:09.239Z,100180.78
2023-01-11T14:12:21.690Z,100186.22
2023-01-11T14:16:37.669Z,100191.84
2023-01-11T14:20:48.173Z,100193.63
2023-01-11T14:25:00.140Z,100218.88
2023-01-11T14:29:17.837Z,100205.44
2023-01-11T14:33:47.355Z,100213.06
2023-01-11T14:38:13.886Z,100220.56
2023-01-11T14:43:05.403Z,100218.72
2023-01-11T14:47:24.383Z,100232.81
2023-01-11T14:51:33.689Z,100216.13
2023-01-11T14:55:45.088Z,100211.97
2023-01-11T14:59:49.546Z,100215.78
2023-01-11T15:03:57.590Z,100211.72
2023-01-11T15:08:19.193Z,100208.69
2023-01-11T15:12:24.808Z,100210.56
2023-01-11T15:16:48.520Z,100214.69
2023-01-11T15:20:54.092Z,100229.25
2023-01-11T15:25:01.110Z,100241.06
2023-01-11T15:29:04.238Z,100232.25
2023-01-11T15:33:30.629Z,100234.53
2023-01-11T15:37:48.870Z,100240.69
2023-01-11T15:42:11.383Z,100229.56
2023-01-11T15:47:01.541Z,100239.44
2023-01-11T15:51:26.617Z,100247.91
2023-01-11T15:56:12.524Z,100253.44
2023-01-11T16:00:40.195Z,100265.06
2023-01-11T16:04:49.199Z,100266.13
2023-01-11T16:09:03.053Z,100277.53
2023-01-11T16:13:27.725Z,100308.88
2023-01-11T16:17:31.123Z,100302.34
2023-01-11T16:21:36.834Z,100312.03
2023-01-11T16:25:43.681Z,100323.81
2023-01-11T16:29:51.129Z,100306.59
2023-01-11T16:33:55.041Z,100328.22
2023-01-11T16:38:01.439Z,100328.03
2023-01-11T16:42:07.866Z,100361.25
2023-01-11T16:46:31.092Z,100359.16
2023-01-11T16:50:34.897Z,100363.13
2023-01-11T16:54:37.953Z,100376.75
2023-01-11T16:58:43.455Z,100375.28
2023-01-11T17:02:49.047Z,100379.72
2023-01-11T17:06:52.091Z,100389.38
2023-01-11T17:10:57.279Z,100378.88
2023-01-11T17:15:16.544Z,100385.16
2023-01-11T17:19:22.695Z,100341.88
2023-01-11T17:23:25.812Z,100349.03
2023-01-11T17:27:31.298Z,100361.19
2023-01-11T17:31:37.966Z,100352.38
2023-01-11T17:35:42.786Z,100359.09
2023-01-11T17:39:48.577Z,100353.22
2023-01-11T17:44:09.355Z,100358.28
2023-01-11T17:48:16.560Z,100330.97
2023-01-11T17:52:22.647Z,100336.00
2023-01-11T17:56:39.239Z,100358.66
2023-01-11T18:00:43.676Z,100352.16
2023-01-11T18:04:59.202Z,100345.22
2023-01-11T18:09:03.995Z,100341.44
2023-01-11T18:13:07.269Z,100336.19
2023-01-11T18:17:30.673Z,100333.88
2023-01-11T18:21:51.643Z,100336.22
2023-01-11T18:26:25.827Z,100333.50
2023-01-11T18:30:38.205Z,100336.78
2023-01-11T18:34:42.489Z,100339.72
2023-01-11T18:38:46.913Z,100336.41
2023-01-11T18:42:52.516Z,100351.88
2023-01-11T18:46:55.590Z,100332.41
2023-01-11T18:50:58.787Z,100333.84
2023-01-11T18:55:03.228Z,100334.25
2023-01-11T18:59:06.307Z,100333.84
2023-01-11T19:03:11.520Z,100314.56
2023-01-11T19:07:15.451Z,100310.78
2023-01-11T19:11:20.530Z,100297.78
2023-01-11T19:15:23.849Z,100303.66
2023-01-11T19:19:27.192Z,100294.81
2023-01-11T19:23:30.686Z,100305.34
2023-01-11T19:27:35.532Z,100311.44
2023-01-11T19:31:38.689Z,100305.34
2023-01-11T19:35:42.844Z,100301.16
2023-01-11T19:39:45.942Z,100294.41
2023-01-11T19:43:50.336Z,100287.50
2023-01-11T19:47:53.400Z,100286.03
2023-01-11T19:51:56.608Z,100274.28
2023-01-11T19:56:02.156Z,100289.81
2023-01-11T20:00:07.747Z,100272.16
2023-01-11T20:04:17.547Z,100246.97
2023-01-11T20:08:22.319Z,100229.56
2023-01-11T20:12:25.371Z,100243.81
2023-01-11T20:16:29.795Z,100239.84
2023-01-11T20:20:32.949Z,100242.78
2023-01-11T20:24:36.038Z,100233.97
2023-01-11T20:28:39.064Z,100239.41
2023-01-11T20:32:43.445Z,100221.78
2023-01-11T20:36:46.717Z,100223.44
2023-01-11T20:40:49.767Z,100232.69
2023-01-11T20:44:53.054Z,100220.47
2023-01-11T20:48:57.456Z,100241.06
2023-01-11T20:53:00.801Z,100238.94
2023-01-11T20:57:05.706Z,100238.97
2023-01-11T21:01:11.118Z,100243.84
2023-01-11T21:05:15.988Z,100228.50
2023-01-11T21:09:19.495Z,100218.84
2023-01-11T21:13:22.564Z,100220.53
2023-01-11T21:17:28.603Z,100227.25
2023-01-11T21:21:35.294Z,100229.34
2023-01-11T21:25:38.306Z,100208.13
2023-01-11T21:29:41.383Z,100201.59
2023-01-11T21:33:44.761Z,100214.63
2023-01-11T21:37:49.463Z,100207.72
2023-01-11T21:41:59.827Z,100221.97
2023-01-11T21:46:03.923Z,100232.28
2023-01-11T21:50:08.817Z,100252.41
2023-01-11T21:54:15.451Z,100235.63
2023-01-11T21:58:18.575Z,100240.91
2023-01-11T22:02:22.740Z,100245.91
2023-01-11T22:06:25.762Z,100242.13
2023-01-11T22:10:31.315Z,100240.25
2023-01-11T22:14:35.218Z,100255.38
2023-01-11T22:18:38.414Z,100247.00
2023-01-11T22:22:41.442Z,100242.38
2023-01-11T22:26:47.395Z,100236.47
2023-01-11T22:30:50.499Z,100229.97
2023-01-11T22:34:53.483Z,100220.94
2023-01-11T22:38:56.979Z,100235.41
2023-01-11T22:43:01.321Z,100218.84
2023-01-11T22:47:04.418Z,100218.84
2023-01-11T22:51:07.961Z,100221.38
2023-01-11T22:55:11.245Z,100237.72
2023-01-11T22:59:15.858Z,100241.28
2023-01-11T23:03:18.902Z,100243.59
2023-01-11T23:07:21.894Z,100254.50
2023-01-11T23:11:45.689Z,100257.41
2023-01-11T23:15:53.706Z,100253.44
2023-01-11T23:19:56.707Z,100272.75
2023-01-11T23:24:01.415Z,100279.41
2023-01-11T23:28:04.619Z,100278.31
2023-01-11T23:32:09.356Z,100291.56
2023-01-11T23:36:13.194Z,100294.69
2023-01-11T23:40:16.467Z,100282.94
2023-01-11T23:44:20.167Z,100301.38
2023-01-11T23:48:27.514Z,100284.19
2023-01-11T23:52:33.208Z,100280.25
2023-01-11T23:56:36.951Z,100263.25
